Lifter — V2DD4 — position and weather

sailwx.info

Track history (hours):
 
Tides and Currents Weather Stations Pressure Air Temp Water Temp Dewpoint Dewpoint Depression Visibility Wind Speed Wind Dir Waves Ship Positions

Lifter

Last reported at 2014-Aug-18 22:33 UTC. Time now 2014-Aug-27 09:05 UTC.
Position N 40°60' E 028°60'.
Warning: this ship's position is 8 days out of date.

Length 118 m; draft 5.4 m.

Type: Ship. MMSI: 305175000.

Date/timePositionNaut miles runAvg speedWind from/ knotsBaromVisibWave heightAir tempDewpointWater temp
2014-Aug-18 22:33N 40°60' E 028°60'8 7.9
2014-Aug-18 21:33N 40°53' E 028°55'8 8.1
2014-Aug-18 20:33N 40°46' E 028°49'1 1.0
2014-Aug-18 19:31N 40°47' E 028°50'1 1.1
2014-Aug-18 18:33N 40°47' E 028°52'10 8.8
2014-Aug-18 17:27N 40°47' E 029°04'1112.7
2014-Aug-18 16:33N 40°45' E 029°19'1010.2
2014-Aug-18 15:33N 40°46' E 029°33'0 0.1
2014-Aug-18 12:21N 40°46' E 029°32'0 0.0
2014-Aug-16 20:26N 40°46' E 029°32'1 0.0
2014-Aug-15 16:07N 40°45' E 029°32'4 6.7
2014-Aug-15 15:32N 40°46' E 029°26'0 0.0
2014-Aug-14 23:16N 40°46' E 029°26'0 0.0
2014-Aug-14 13:18N 40°46' E 029°26'0 0.0
2014-Aug-14 12:24N 40°46' E 029°26'0 0.0
2014-Aug-14 11:18N 40°46' E 029°26'0 0.0
2014-Aug-14 10:06N 40°46' E 029°26'0 0.0
2014-Aug-14 07:12N 40°46' E 029°26'0 0.0
2014-Aug-14 05:24N 40°46' E 029°26'0 0.0
2014-Aug-14 04:18N 40°46' E 029°26'0 0.0
2014-Aug-14 03:24N 40°46' E 029°26'1 0.1
2014-Aug-13 18:25N 40°45' E 029°26'8 9.1
2014-Aug-13 17:31N 40°43' E 029°15'1211.8
2014-Aug-13 16:32N 40°41' E 029°00'1111.1
2014-Aug-13 15:33N 40°35' E 028°49'13 9.0
2014-Aug-13 14:09N 40°26' E 028°60'4 0.3
2014-Aug-12 23:14N 40°25' E 029°05'1 0.1
2014-Aug-12 09:33N 40°26' E 029°05'1611.1
2014-Aug-12 08:06N 40°31' E 028°44'611.2
2014-Aug-12 07:33N 40°35' E 028°39'15310.2
2014-Aug-11 16:33N 39°30' E 025°38'1312.3
2014-Aug-11 15:30N 39°18' E 025°31'1112.2
2014-Aug-11 14:33N 39°08' E 025°24'1212.3
2014-Aug-11 13:34N 38°57' E 025°17'1312.6
2014-Aug-11 12:34N 38°46' E 025°10'2512.4
2014-Aug-11 10:33N 38°24' E 024°56'1512.1
2014-Aug-11 09:19N 38°10' E 024°47'2011.4
2014-Aug-11 07:32N 37°53' E 024°32'2512.2
2014-Aug-11 05:31N 37°35' E 024°12'1212.4
2014-Aug-11 04:32N 37°24' E 024°04'1312.5
2014-Aug-11 03:29N 37°13' E 023°55'1212.3
2014-Aug-11 02:33N 37°04' E 023°47'1412.4
2014-Aug-11 01:27N 36°52' E 023°37'2412.7
2014-Aug-10 23:33N 36°31' E 023°23'2511.1
2014-Aug-10 21:19N 36°25' E 022°54'36012.8
2014-Aug-09 17:16N 35°58' E 015°28'1313.2
2014-Aug-09 16:15N 35°57' E 015°12'912.8
2014-Aug-09 15:33N 35°56' E 015°01'1312.8
2014-Aug-09 14:33N 35°55' E 014°45'1211.5
2014-Aug-09 13:33N 35°54' E 014°31'1 0.1
2014-Aug-09 09:17N 35°53' E 014°31'3 0.7
2014-Aug-09 05:33N 35°56' E 014°32'1110.9
2014-Aug-09 04:33N 36°05' E 014°25'1111.1
2014-Aug-09 03:33N 36°10' E 014°13'1110.9
2014-Aug-09 02:33N 36°16' E 014°02'1010.0
2014-Aug-09 01:33N 36°20' E 013°50'10 9.9
2014-Aug-09 00:33N 36°24' E 013°39'1010.1
2014-Aug-08 23:33N 36°29' E 013°28'5 5.3
2014-Aug-08 22:33N 36°26' E 013°34'  
Track history (hours):
 
Tides and Currents Weather Stations Pressure Air Temp Water Temp Dewpoint Dewpoint Depression Visibility Wind Speed Wind Dir Waves Ship Positions

Lifter

Last reported at 2014-Aug-18 22:33 UTC. Time now 2014-Aug-27 09:05 UTC.
Position N 40°60' E 028°60'.
Warning: this ship's position is 8 days out of date.

Length 118 m; draft 5.4 m.

Type: Ship. MMSI: 305175000.

Date/timePositionNaut miles runAvg speedWind from/ knotsBaromVisibWave heightAir tempDewpointWater temp
2014-Aug-18 22:33N 40°60' E 028°60'8 7.9
2014-Aug-18 21:33N 40°53' E 028°55'8 8.1
2014-Aug-18 20:33N 40°46' E 028°49'1 1.0
2014-Aug-18 19:31N 40°47' E 028°50'1 1.1
2014-Aug-18 18:33N 40°47' E 028°52'10 8.8
2014-Aug-18 17:27N 40°47' E 029°04'1112.7
2014-Aug-18 16:33N 40°45' E 029°19'1010.2
2014-Aug-18 15:33N 40°46' E 029°33'0 0.1
2014-Aug-18 12:21N 40°46' E 029°32'0 0.0
2014-Aug-16 20:26N 40°46' E 029°32'1 0.0
2014-Aug-15 16:07N 40°45' E 029°32'4 6.7
2014-Aug-15 15:32N 40°46' E 029°26'0 0.0
2014-Aug-14 23:16N 40°46' E 029°26'0 0.0
2014-Aug-14 13:18N 40°46' E 029°26'0 0.0
2014-Aug-14 12:24N 40°46' E 029°26'0 0.0
2014-Aug-14 11:18N 40°46' E 029°26'0 0.0
2014-Aug-14 10:06N 40°46' E 029°26'0 0.0
2014-Aug-14 07:12N 40°46' E 029°26'0 0.0
2014-Aug-14 05:24N 40°46' E 029°26'0 0.0
2014-Aug-14 04:18N 40°46' E 029°26'0 0.0
2014-Aug-14 03:24N 40°46' E 029°26'1 0.1
2014-Aug-13 18:25N 40°45' E 029°26'8 9.1
2014-Aug-13 17:31N 40°43' E 029°15'1211.8
2014-Aug-13 16:32N 40°41' E 029°00'1111.1
2014-Aug-13 15:33N 40°35' E 028°49'13 9.0
2014-Aug-13 14:09N 40°26' E 028°60'4 0.3
2014-Aug-12 23:14N 40°25' E 029°05'1 0.1
2014-Aug-12 09:33N 40°26' E 029°05'1611.1
2014-Aug-12 08:06N 40°31' E 028°44'611.2
2014-Aug-12 07:33N 40°35' E 028°39'15310.2
2014-Aug-11 16:33N 39°30' E 025°38'1312.3
2014-Aug-11 15:30N 39°18' E 025°31'1112.2
2014-Aug-11 14:33N 39°08' E 025°24'1212.3
2014-Aug-11 13:34N 38°57' E 025°17'1312.6
2014-Aug-11 12:34N 38°46' E 025°10'2512.4
2014-Aug-11 10:33N 38°24' E 024°56'1512.1
2014-Aug-11 09:19N 38°10' E 024°47'2011.4
2014-Aug-11 07:32N 37°53' E 024°32'2512.2
2014-Aug-11 05:31N 37°35' E 024°12'1212.4
2014-Aug-11 04:32N 37°24' E 024°04'1312.5
2014-Aug-11 03:29N 37°13' E 023°55'1212.3
2014-Aug-11 02:33N 37°04' E 023°47'1412.4
2014-Aug-11 01:27N 36°52' E 023°37'2412.7
2014-Aug-10 23:33N 36°31' E 023°23'2511.1
2014-Aug-10 21:19N 36°25' E 022°54'36012.8
2014-Aug-09 17:16N 35°58' E 015°28'1313.2
2014-Aug-09 16:15N 35°57' E 015°12'912.8
2014-Aug-09 15:33N 35°56' E 015°01'1312.8
2014-Aug-09 14:33N 35°55' E 014°45'1211.5
2014-Aug-09 13:33N 35°54' E 014°31'1 0.1
2014-Aug-09 09:17N 35°53' E 014°31'3 0.7
2014-Aug-09 05:33N 35°56' E 014°32'1110.9
2014-Aug-09 04:33N 36°05' E 014°25'1111.1
2014-Aug-09 03:33N 36°10' E 014°13'1110.9
2014-Aug-09 02:33N 36°16' E 014°02'1010.0
2014-Aug-09 01:33N 36°20' E 013°50'10 9.9
2014-Aug-09 00:33N 36°24' E 013°39'1010.1
2014-Aug-08 23:33N 36°29' E 013°28'5 5.3
2014-Aug-08 22:33N 36°26' E 013°34'  

Dump ship's entire track history